Time,TemperatureF,DewpointF,PressureIn,WindDirection,WindDirectionDegrees,WindSpeedMPH,WindSpeedGustMPH,Humidity,HourlyPrecipIn,Conditions,Clouds,dailyrainin,SoftwareType,DateUTC
2013-03-30 00:01:00,45.7,32.2,-100.00,WNW,292,4.7,-999.0,59,-99.99,,,0.00,Acu-Link.com,2013-03-30 04:01:00,
2013-03-30 00:31:00,45.3,32.3,-100.00,NW,315,5.1,-999.0,60,-99.99,,,0.00,Acu-Link.com,2013-03-30 04:31:00,
2013-03-30 00:46:00,45.0,32.3,-100.00,WNW,292,4.3,-999.0,61,-99.99,,,0.00,Acu-Link.com,2013-03-30 04:46:00,
2013-03-30 01:01:00,45.0,32.3,-100.00,West,270,4.7,-999.0,61,-99.99,,,0.00,Acu-Link.com,2013-03-30 05:01:00,
2013-03-30 01:17:00,44.6,32.0,-100.00,WNW,292,4.3,-999.0,61,-99.99,,,0.00,Acu-Link.com,2013-03-30 05:17:00,
2013-03-30 01:32:00,44.4,32.2,-100.00,WNW,292,3.8,-999.0,62,-99.99,,,0.00,Acu-Link.com,2013-03-30 05:32:00,
2013-03-30 01:47:00,44.4,32.2,-100.00,WNW,292,4.3,-999.0,62,-99.99,,,0.00,Acu-Link.com,2013-03-30 05:47:00,
2013-03-30 02:02:00,44.2,32.5,-100.00,NNW,337,3.1,-999.0,63,-99.99,,,0.00,Acu-Link.com,2013-03-30 06:02:00,
2013-03-30 02:18:00,44.2,32.5,-100.00,NNW,337,5.8,-999.0,63,-99.99,,,0.00,Acu-Link.com,2013-03-30 06:18:00,
2013-03-30 02:33:00,44.1,32.3,-100.00,NW,315,3.8,-999.0,63,-99.99,,,0.00,Acu-Link.com,2013-03-30 06:33:00,
2013-03-30 02:48:00,43.9,32.5,-100.00,WNW,292,4.7,-999.0,64,-99.99,,,0.00,Acu-Link.com,2013-03-30 06:48:00,
2013-03-30 03:03:00,43.7,32.3,-100.00,WNW,292,4.3,-999.0,64,-99.99,,,0.00,Acu-Link.com,2013-03-30 07:03:00,
2013-03-30 03:18:00,43.7,32.3,-100.00,NW,315,2.7,-999.0,64,-99.99,,,0.00,Acu-Link.com,2013-03-30 07:18:00,
2013-03-30 03:33:00,43.5,32.2,-100.00,West,270,4.3,-999.0,64,-99.99,,,0.00,Acu-Link.com,2013-03-30 07:33:00,
2013-03-30 03:48:00,43.3,32.0,-100.00,WNW,292,1.6,-999.0,64,-99.99,,,0.00,Acu-Link.com,2013-03-30 07:48:00,
2013-03-30 04:03:00,43.2,31.8,-100.00,NNW,337,5.1,-999.0,64,-99.99,,,0.00,Acu-Link.com,2013-03-30 08:03:00,
2013-03-30 04:19:00,43.2,31.8,-100.00,WNW,292,4.7,-999.0,64,-99.99,,,0.00,Acu-Link.com,2013-03-30 08:19:00,
2013-03-30 04:34:00,42.4,31.1,-100.00,WNW,292,4.7,-999.0,64,-99.99,,,0.00,Acu-Link.com,2013-03-30 08:34:00,
2013-03-30 04:49:00,41.9,31.4,-100.00,WNW,292,3.1,-999.0,66,-99.99,,,0.00,Acu-Link.com,2013-03-30 08:49:00,
2013-03-30 05:04:00,41.2,30.7,-100.00,West,270,2.2,-999.0,66,-99.99,,,0.00,Acu-Link.com,2013-03-30 09:04:00,
2013-03-30 05:19:00,40.6,30.6,-100.00,West,270,6.3,-999.0,67,-99.99,,,0.00,Acu-Link.com,2013-03-30 09:19:00,
2013-03-30 05:34:00,40.3,30.6,-100.00,WNW,292,4.7,-999.0,68,-99.99,,,0.00,Acu-Link.com,2013-03-30 09:34:00,
2013-03-30 05:50:00,39.9,30.2,-100.00,NW,315,6.7,-999.0,68,-99.99,,,0.00,Acu-Link.com,2013-03-30 09:50:00,
2013-03-30 06:05:00,39.6,30.2,-100.00,West,270,3.8,-999.0,69,-99.99,,,0.00,Acu-Link.com,2013-03-30 10:05:00,
2013-03-30 06:20:00,39.2,29.9,-100.00,WNW,292,3.1,-999.0,69,-99.99,,,0.00,Acu-Link.com,2013-03-30 10:20:00,
2013-03-30 06:36:00,39.0,30.1,-100.00,West,270,3.8,-999.0,70,-99.99,,,0.00,Acu-Link.com,2013-03-30 10:36:00,
2013-03-30 06:51:00,39.0,29.7,-100.00,NNE,22,4.3,-999.0,69,-99.99,,,0.00,Acu-Link.com,2013-03-30 10:51:00,
2013-03-30 07:21:00,40.8,30.0,-100.00,North,0,1.6,-999.0,65,-99.99,,,0.00,Acu-Link.com,2013-03-30 11:21:00,
2013-03-30 07:36:00,41.2,29.6,-100.00,West,270,3.8,-999.0,63,-99.99,,,0.00,Acu-Link.com,2013-03-30 11:36:00,
2013-03-30 08:07:00,43.2,30.2,-100.00,NW,315,4.7,-999.0,60,-99.99,,,0.00,Acu-Link.com,2013-03-30 12:07:00,
2013-03-30 08:22:00,44.1,30.2,-100.00,NNW,337,2.7,-999.0,58,-99.99,,,0.00,Acu-Link.com,2013-03-30 12:22:00,
2013-03-30 08:37:00,45.7,30.0,-100.00,NNE,22,4.3,-999.0,54,-99.99,,,0.00,Acu-Link.com,2013-03-30 12:37:00,
2013-03-30 08:52:00,46.0,29.4,-100.00,NW,315,5.8,-999.0,52,-99.99,,,0.00,Acu-Link.com,2013-03-30 12:52:00,
2013-03-30 09:08:00,46.9,29.3,-100.00,WNW,292,2.7,-999.0,50,-99.99,,,0.00,Acu-Link.com,2013-03-30 13:08:00,
2013-03-30 09:23:00,48.2,28.4,-100.00,NNW,337,6.3,-999.0,46,-99.99,,,0.00,Acu-Link.com,2013-03-30 13:23:00,
2013-03-30 09:38:00,48.7,27.3,-100.00,NW,315,9.8,-999.0,43,-99.99,,,0.00,Acu-Link.com,2013-03-30 13:38:00,
2013-03-30 09:53:00,49.8,27.7,-100.00,NNW,337,3.1,-999.0,42,-99.99,,,0.00,Acu-Link.com,2013-03-30 13:53:00,
2013-03-30 10:09:00,50.7,26.7,-100.00,NE,45,2.7,-999.0,39,-99.99,,,0.00,Acu-Link.com,2013-03-30 14:09:00,
2013-03-30 10:24:00,50.5,25.9,-100.00,North,0,5.8,-999.0,38,-99.99,,,0.00,Acu-Link.com,2013-03-30 14:24:00,
2013-03-30 10:39:00,52.5,25.7,-100.00,WNW,292,7.4,-999.0,35,-99.99,,,0.00,Acu-Link.com,2013-03-30 14:39:00,
2013-03-30 10:54:00,52.7,25.8,-100.00,WNW,292,5.1,-999.0,35,-99.99,,,0.00,Acu-Link.com,2013-03-30 14:54:00,
2013-03-30 11:09:00,52.5,25.0,-100.00,NNE,22,5.1,-999.0,34,-99.99,,,0.00,Acu-Link.com,2013-03-30 15:09:00,
2013-03-30 11:25:00,54.1,24.2,-100.00,NNE,22,4.7,-999.0,31,-99.99,,,0.00,Acu-Link.com,2013-03-30 15:25:00,
2013-03-30 11:40:00,53.4,22.0,-100.00,North,0,6.7,-999.0,29,-99.99,,,0.00,Acu-Link.com,2013-03-30 15:40:00,
2013-03-30 11:55:00,54.1,21.8,-100.00,NE,45,4.7,-999.0,28,-99.99,,,0.00,Acu-Link.com,2013-03-30 15:55:00,
2013-03-30 12:10:00,55.4,22.9,-100.00,WNW,292,3.8,-999.0,28,-99.99,,,0.00,Acu-Link.com,2013-03-30 16:10:00,
2013-03-30 12:25:00,56.3,22.8,-100.00,North,0,3.8,-999.0,27,-99.99,,,0.00,Acu-Link.com,2013-03-30 16:25:00,
2013-03-30 12:40:00,55.2,20.9,-100.00,NE,45,3.1,-999.0,26,-99.99,,,0.00,Acu-Link.com,2013-03-30 16:40:00,
2013-03-30 12:55:00,56.7,21.3,-100.00,West,270,4.7,-999.0,25,-99.99,,,0.00,Acu-Link.com,2013-03-30 16:55:00,
2013-03-30 13:11:00,58.1,20.5,-100.00,West,270,8.3,-999.0,23,-99.99,,,0.00,Acu-Link.com,2013-03-30 17:11:00,
2013-03-30 13:26:00,57.6,21.1,-100.00,NNW,337,8.9,-999.0,24,-99.99,,,0.00,Acu-Link.com,2013-03-30 17:26:00,
2013-03-30 13:41:00,56.8,19.4,-100.00,NNE,22,6.7,-999.0,23,-99.99,,,0.00,Acu-Link.com,2013-03-30 17:41:00,
2013-03-30 13:56:00,57.2,18.7,-100.00,NW,315,5.8,-999.0,22,-99.99,,,0.00,Acu-Link.com,2013-03-30 17:56:00,
2013-03-30 14:29:00,57.9,17.1,-100.00,WNW,292,7.4,-999.0,20,-99.99,,,0.00,Acu-Link.com,2013-03-30 18:29:00,
2013-03-30 14:44:00,58.8,15.4,-100.00,NNW,337,3.1,-999.0,18,-99.99,,,0.00,Acu-Link.com,2013-03-30 18:44:00,
2013-03-30 14:59:00,58.6,14.0,-100.00,NNW,337,3.8,-999.0,17,-99.99,,,0.00,Acu-Link.com,2013-03-30 18:59:00,
2013-03-30 15:14:00,58.6,15.3,-100.00,WNW,292,6.3,-999.0,18,-99.99,,,0.00,Acu-Link.com,2013-03-30 19:14:00,
2013-03-30 15:29:00,58.6,15.3,-100.00,West,270,6.7,-999.0,18,-99.99,,,0.00,Acu-Link.com,2013-03-30 19:29:00,
2013-03-30 15:45:00,57.7,15.8,-100.00,WNW,292,3.1,-999.0,19,-99.99,,,0.00,Acu-Link.com,2013-03-30 19:45:00,
2013-03-30 16:00:00,59.7,17.4,-100.00,NNE,22,5.1,-999.0,19,-99.99,,,0.00,Acu-Link.com,2013-03-30 20:00:00,
2013-03-30 16:15:00,58.1,16.1,-100.00,NNE,22,3.8,-999.0,19,-99.99,,,0.00,Acu-Link.com,2013-03-30 20:15:00,
2013-03-30 16:30:00,58.5,16.4,-100.00,North,0,7.4,-999.0,19,-99.99,,,0.00,Acu-Link.com,2013-03-30 20:30:00,
2013-03-30 16:45:00,57.7,17.0,-100.00,WSW,247,6.7,-999.0,20,-99.99,,,0.00,Acu-Link.com,2013-03-30 20:45:00,
2013-03-30 17:10:00,58.1,18.4,-100.00,WNW,292,6.7,-999.0,21,-99.99,,,0.00,Acu-Link.com,2013-03-30 21:10:00,